createdAt,value
2022-09-21T00:01:52.173Z,11.30
2022-09-21T00:04:21.949Z,11.40
2022-09-21T00:06:51.110Z,11.40
2022-09-21T00:09:20.318Z,11.30
2022-09-21T00:11:49.703Z,11.30
2022-09-21T00:14:25.726Z,11.40
2022-09-21T00:16:55.368Z,11.40
2022-09-21T00:19:24.534Z,11.40
2022-09-21T00:21:57.007Z,11.40
2022-09-21T00:24:26.245Z,11.40
2022-09-21T00:26:55.366Z,11.40
2022-09-21T00:29:25.953Z,11.30
2022-09-21T00:31:55.114Z,11.30
2022-09-21T00:34:25.246Z,11.30
2022-09-21T00:36:55.218Z,11.30
2022-09-21T00:39:24.193Z,11.30
2022-09-21T00:41:54.049Z,11.20
2022-09-21T00:44:32.334Z,11.20
2022-09-21T00:47:09.184Z,11.20
2022-09-21T00:49:40.205Z,11.20
2022-09-21T00:52:09.907Z,11.10
2022-09-21T00:54:45.138Z,11.20
2022-09-21T00:57:16.265Z,11.20
2022-09-21T00:59:47.727Z,11.20
2022-09-21T01:02:17.018Z,11.20
2022-09-21T01:04:47.034Z,11.20
2022-09-21T01:07:26.518Z,11.20
2022-09-21T01:10:05.558Z,11.20
2022-09-21T01:12:48.386Z,11.20
2022-09-21T01:15:32.026Z,11.10
2022-09-21T01:18:08.738Z,11.10
2022-09-21T01:21:07.939Z,11.10
2022-09-21T01:23:54.786Z,11.00
2022-09-21T01:26:40.152Z,11.00
2022-09-21T01:29:24.485Z,11.00
2022-09-21T01:31:59.913Z,10.90
2022-09-21T01:34:35.057Z,10.90
2022-09-21T01:37:08.118Z,10.80
2022-09-21T01:39:40.818Z,10.70
2022-09-21T01:42:11.125Z,10.70
2022-09-21T01:44:43.731Z,10.70
2022-09-21T01:47:14.958Z,10.70
2022-09-21T01:49:48.716Z,10.70
2022-09-21T01:52:21.746Z,10.80
2022-09-21T01:54:55.913Z,10.80
2022-09-21T01:57:31.358Z,10.80
2022-09-21T02:00:03.367Z,10.90
2022-09-21T02:02:38.377Z,11.00
2022-09-21T02:05:09.298Z,11.00
2022-09-21T02:07:39.737Z,10.90
2022-09-21T02:13:01.620Z,10.80
2022-09-21T02:15:41.297Z,10.70
2022-09-21T02:18:18.952Z,10.70
2022-09-21T02:20:54.827Z,10.70
2022-09-21T02:23:27.886Z,10.70
2022-09-21T02:26:01.244Z,10.80
2022-09-21T02:28:39.898Z,10.70
2022-09-21T02:31:16.058Z,10.80
2022-09-21T02:33:55.826Z,10.80
2022-09-21T02:36:33.018Z,10.80
2022-09-21T02:39:08.065Z,10.80
2022-09-21T02:41:42.659Z,10.90
2022-09-21T02:44:16.458Z,10.80
2022-09-21T02:46:54.585Z,10.80
2022-09-21T02:49:29.446Z,10.80
2022-09-21T02:52:01.861Z,10.80
2022-09-21T02:54:34.424Z,10.80
2022-09-21T02:57:04.446Z,10.80
2022-09-21T02:59:33.975Z,10.90
2022-09-21T03:02:07.318Z,10.90
2022-09-21T03:04:37.266Z,10.90
2022-09-21T03:07:06.477Z,11.00
2022-09-21T03:09:35.414Z,11.00
2022-09-21T03:12:04.617Z,11.00
2022-09-21T03:14:34.127Z,11.00
2022-09-21T03:17:04.598Z,11.00
2022-09-21T03:19:33.507Z,11.00
2022-09-21T03:22:02.438Z,10.90
2022-09-21T03:24:49.447Z,11.00
2022-09-21T03:27:20.379Z,11.00
2022-09-21T03:29:50.023Z,11.10
2022-09-21T03:32:20.538Z,11.10
2022-09-21T03:34:49.549Z,11.20
2022-09-21T03:37:18.566Z,11.20
2022-09-21T03:39:47.659Z,11.30
2022-09-21T03:42:16.706Z,11.30
2022-09-21T03:44:45.606Z,11.30
2022-09-21T03:47:14.585Z,11.30
2022-09-21T03:49:44.999Z,11.40
2022-09-21T03:52:14.103Z,11.40
2022-09-21T03:54:42.998Z,11.40
2022-09-21T03:57:11.966Z,11.50
2022-09-21T03:59:40.887Z,11.50
2022-09-21T04:02:10.085Z,11.50
2022-09-21T04:04:38.904Z,11.50
2022-09-21T04:07:09.483Z,11.50
2022-09-21T04:09:38.397Z,11.50
2022-09-21T04:12:07.714Z,11.60
2022-09-21T04:14:37.226Z,11.60
2022-09-21T04:17:06.403Z,11.60
2022-09-21T04:19:35.294Z,11.60
2022-09-21T04:22:05.674Z,11.60
2022-09-21T04:24:37.513Z,11.70
2022-09-21T04:27:06.855Z,11.70
2022-09-21T04:29:37.547Z,11.80
2022-09-21T04:32:07.429Z,11.80
2022-09-21T04:34:40.516Z,11.80
2022-09-21T04:37:12.395Z,11.70
2022-09-21T04:39:44.538Z,11.70
2022-09-21T04:42:13.685Z,11.80
2022-09-21T04:44:42.678Z,11.70
2022-09-21T04:47:11.577Z,11.70
2022-09-21T04:49:40.451Z,11.70
2022-09-21T04:52:09.459Z,11.70
2022-09-21T04:54:38.327Z,11.80
2022-09-21T04:57:09.058Z,11.80
2022-09-21T04:59:37.935Z,11.80
2022-09-21T05:02:06.805Z,11.90
2022-09-21T05:04:35.797Z,11.90
2022-09-21T05:07:05.099Z,12.00
2022-09-21T05:09:51.418Z,12.00
2022-09-21T05:12:21.907Z,12.00
2022-09-21T05:14:50.934Z,12.10
2022-09-21T05:17:24.018Z,12.00
2022-09-21T05:19:54.418Z,12.00
2022-09-21T05:22:23.766Z,12.00
2022-09-21T05:24:52.674Z,12.10
2022-09-21T05:27:23.058Z,12.20
2022-09-21T05:29:53.177Z,12.30
2022-09-21T05:32:27.464Z,12.40
2022-09-21T05:35:03.993Z,12.50
2022-09-21T05:37:47.424Z,12.60
2022-09-21T05:40:17.413Z,12.70
2022-09-21T05:42:48.737Z,12.80
2022-09-21T05:45:21.335Z,12.80
2022-09-21T05:48:09.525Z,12.90
2022-09-21T05:50:50.838Z,12.80
2022-09-21T05:53:42.717Z,12.80
2022-09-21T05:56:23.598Z,12.80
2022-09-21T05:59:04.317Z,12.60
2022-09-21T06:01:43.837Z,12.70
2022-09-21T06:04:14.235Z,12.70
2022-09-21T06:06:43.138Z,12.80
2022-09-21T06:09:12.166Z,12.80
2022-09-21T06:11:41.179Z,13.00
2022-09-21T06:14:11.906Z,13.20
2022-09-21T06:16:41.907Z,13.50
2022-09-21T06:19:13.587Z,13.80
2022-09-21T06:21:42.580Z,14.00
2022-09-21T06:24:12.298Z,14.00
2022-09-21T06:26:41.294Z,13.80
2022-09-21T06:29:11.647Z,13.80
2022-09-21T06:31:40.708Z,13.80
2022-09-21T06:34:09.686Z,13.60
2022-09-21T06:36:38.619Z,13.60
2022-09-21T06:39:07.617Z,13.60
2022-09-21T06:41:36.481Z,13.60
2022-09-21T06:44:05.931Z,13.50
2022-09-21T06:46:36.478Z,13.50
2022-09-21T06:49:05.638Z,13.40
2022-09-21T06:51:34.618Z,13.40
2022-09-21T06:54:03.586Z,13.60
2022-09-21T06:56:33.038Z,13.60
2022-09-21T06:59:01.943Z,13.70
2022-09-21T07:01:31.013Z,13.80
2022-09-21T07:04:01.498Z,13.80
2022-09-21T07:06:31.200Z,14.00
2022-09-21T07:11:50.047Z,14.20
2022-09-21T07:14:18.955Z,14.30
2022-09-21T07:16:53.113Z,14.20
2022-09-21T07:19:23.537Z,14.20
2022-09-21T07:21:54.558Z,14.20
2022-09-21T07:24:23.655Z,14.30
2022-09-21T07:26:53.232Z,14.60
2022-09-21T07:29:22.266Z,14.70
2022-09-21T07:31:51.226Z,14.80
2022-09-21T07:34:20.407Z,14.70
2022-09-21T07:36:50.827Z,14.80
2022-09-21T07:39:19.778Z,14.80
2022-09-21T07:41:48.687Z,15.00
2022-09-21T07:44:17.637Z,15.00
2022-09-21T07:46:48.353Z,14.80
2022-09-21T07:49:17.385Z,14.80
2022-09-21T07:51:46.438Z,14.70
2022-09-21T07:54:16.907Z,14.70
2022-09-21T07:57:06.026Z,14.70
2022-09-21T07:59:33.875Z,14.70
2022-09-21T08:02:02.827Z,14.90
2022-09-21T08:04:31.691Z,15.20
2022-09-21T08:07:00.737Z,15.30
2022-09-21T08:09:31.148Z,15.60
2022-09-21T08:12:01.783Z,16.00
2022-09-21T08:14:30.779Z,16.20
2022-09-21T08:16:59.718Z,16.50
2022-09-21T08:19:28.747Z,16.60
2022-09-21T08:21:58.145Z,16.50
2022-09-21T08:24:28.106Z,16.10
2022-09-21T08:26:58.557Z,16.10
2022-09-21T08:29:27.765Z,16.00
2022-09-21T08:31:56.916Z,16.00
2022-09-21T08:34:26.698Z,16.20
2022-09-21T08:36:56.016Z,16.40
2022-09-21T08:39:25.106Z,16.30
2022-09-21T08:42:10.401Z,16.30
2022-09-21T08:44:42.920Z,16.40
2022-09-21T08:47:15.983Z,16.70
2022-09-21T08:49:51.814Z,16.70
2022-09-21T08:52:23.292Z,16.80
2022-09-21T08:54:56.953Z,16.70
2022-09-21T08:57:31.674Z,16.70
2022-09-21T09:00:02.263Z,16.60
2022-09-21T09:02:47.679Z,16.40
2022-09-21T09:05:34.715Z,16.60
2022-09-21T09:08:19.749Z,16.80
2022-09-21T09:10:59.817Z,16.90
2022-09-21T09:13:53.186Z,17.00
2022-09-21T09:16:27.260Z,17.10
2022-09-21T09:19:00.384Z,17.10
2022-09-21T09:21:34.880Z,17.20
2022-09-21T09:24:11.880Z,17.20
2022-09-21T09:26:47.098Z,17.30
2022-09-21T09:29:24.182Z,17.00
2022-09-21T09:31:55.840Z,17.00
2022-09-21T09:34:31.398Z,17.20
2022-09-21T09:37:03.026Z,17.50
2022-09-21T09:39:32.619Z,17.30
2022-09-21T09:42:34.619Z,17.40
2022-09-21T09:45:18.911Z,17.40
2022-09-21T09:48:01.036Z,17.10
2022-09-21T09:50:33.692Z,17.00
2022-09-21T09:53:06.866Z,17.20
2022-09-21T09:55:39.935Z,17.10
2022-09-21T09:58:19.240Z,17.40
2022-09-21T10:00:53.798Z,17.40
2022-09-21T10:03:25.514Z,17.20
2022-09-21T10:05:55.197Z,17.10
2022-09-21T10:08:44.592Z,16.80
2022-09-21T10:11:15.273Z,16.90
2022-09-21T10:13:47.849Z,17.10
2022-09-21T10:16:24.144Z,17.10
2022-09-21T10:18:56.706Z,17.00
2022-09-21T10:21:27.274Z,17.00
2022-09-21T10:24:00.898Z,17.20
2022-09-21T10:26:34.437Z,17.60
2022-09-21T10:29:19.213Z,17.70
2022-09-21T10:31:58.720Z,18.00
2022-09-21T10:34:29.338Z,18.00
2022-09-21T10:36:59.639Z,18.00
2022-09-21T10:39:32.015Z,18.00
2022-09-21T10:42:04.896Z,18.10
2022-09-21T10:44:42.521Z,17.90
2022-09-21T10:47:24.605Z,17.70
2022-09-21T10:49:56.150Z,17.90
2022-09-21T10:52:27.446Z,18.10
2022-09-21T10:54:57.705Z,18.10
2022-09-21T10:57:29.208Z,18.30
2022-09-21T11:00:00.040Z,18.40
2022-09-21T11:02:39.015Z,18.40
2022-09-21T11:05:16.966Z,18.70
2022-09-21T11:07:51.886Z,18.70
2022-09-21T11:10:32.047Z,18.80
2022-09-21T11:13:18.253Z,18.80
2022-09-21T11:15:56.313Z,19.00
2022-09-21T11:18:37.725Z,19.00
2022-09-21T11:21:14.971Z,19.10
2022-09-21T11:23:51.010Z,18.70
2022-09-21T11:26:27.044Z,18.70
2022-09-21T11:29:03.786Z,18.70
2022-09-21T11:31:49.457Z,18.70
2022-09-21T11:34:51.122Z,18.60
2022-09-21T11:37:35.444Z,18.00
2022-09-21T11:40:21.740Z,17.70
2022-09-21T11:43:02.081Z,17.60
2022-09-21T11:45:50.386Z,17.50
2022-09-21T11:48:28.706Z,17.30
2022-09-21T11:51:12.287Z,16.80
2022-09-21T11:53:58.197Z,16.70
2022-09-21T11:56:44.511Z,16.70
2022-09-21T11:59:34.742Z,16.70
2022-09-21T12:02:34.536Z,16.90
2022-09-21T12:05:14.037Z,17.10
2022-09-21T12:07:57.887Z,17.10
2022-09-21T12:10:40.757Z,17.40
2022-09-21T12:13:18.538Z,17.80
2022-09-21T12:15:53.665Z,18.00
2022-09-21T12:18:29.378Z,18.30
2022-09-21T12:21:04.063Z,18.40
2022-09-21T12:23:43.628Z,18.20
2022-09-21T12:26:15.765Z,18.20
2022-09-21T12:28:48.054Z,18.20
2022-09-21T12:31:22.210Z,17.90
2022-09-21T12:33:53.957Z,17.60
2022-09-21T12:36:29.920Z,17.60
2022-09-21T12:39:12.779Z,17.30
2022-09-21T12:41:49.800Z,17.00
2022-09-21T12:44:24.628Z,16.80
2022-09-21T12:47:09.843Z,16.70
2022-09-21T12:49:43.878Z,16.70
2022-09-21T12:52:21.481Z,16.60
2022-09-21T12:54:58.690Z,16.80
2022-09-21T12:58:13.654Z,16.90
2022-09-21T13:00:25.874Z,17.20
2022-09-21T13:03:00.359Z,18.00
2022-09-21T13:05:39.788Z,18.60
2022-09-21T13:08:13.928Z,18.50
2022-09-21T13:10:54.881Z,18.30
2022-09-21T13:13:32.168Z,18.10
2022-09-21T13:16:02.479Z,18.00
2022-09-21T13:18:36.323Z,18.30
2022-09-21T13:21:17.977Z,18.00
2022-09-21T13:23:54.435Z,18.00
2022-09-21T13:26:36.173Z,17.80
2022-09-21T13:29:40.346Z,17.70
2022-09-21T13:32:25.212Z,17.60
2022-09-21T13:34:54.237Z,17.50
2022-09-21T13:37:32.198Z,17.60
2022-09-21T13:40:40.725Z,17.60
2022-09-21T13:43:26.070Z,17.60
2022-09-21T13:45:59.787Z,17.50
2022-09-21T13:48:33.201Z,17.60
2022-09-21T13:51:07.999Z,17.70
2022-09-21T13:53:41.828Z,17.60
2022-09-21T13:56:19.184Z,17.50
2022-09-21T13:58:54.388Z,17.30
2022-09-21T14:01:45.862Z,17.40
2022-09-21T14:04:25.865Z,17.30
2022-09-21T14:06:56.238Z,17.50
2022-09-21T14:09:31.973Z,17.70
2022-09-21T14:12:06.626Z,17.90
2022-09-21T14:14:40.291Z,17.80
2022-09-21T14:17:36.306Z,18.00
2022-09-21T14:20:08.621Z,18.40
2022-09-21T14:22:43.801Z,18.20
2022-09-21T14:25:49.401Z,18.00
2022-09-21T14:28:20.061Z,18.00
2022-09-21T14:30:58.068Z,17.80
2022-09-21T14:33:33.559Z,17.50
2022-09-21T14:36:08.149Z,17.40
2022-09-21T14:38:53.042Z,17.40
2022-09-21T14:41:25.906Z,17.20
2022-09-21T14:43:57.066Z,17.20
2022-09-21T14:46:59.911Z,17.10
2022-09-21T14:49:42.150Z,17.20
2022-09-21T14:52:29.750Z,17.10
2022-09-21T14:55:16.054Z,16.90
2022-09-21T14:58:01.486Z,16.70
2022-09-21T15:00:40.540Z,16.70
2022-09-21T15:03:41.312Z,16.40
2022-09-21T15:06:37.855Z,16.40
2022-09-21T15:09:49.701Z,16.20
2022-09-21T15:12:22.495Z,16.10
2022-09-21T15:15:01.926Z,15.90
2022-09-21T15:17:32.185Z,15.70
2022-09-21T15:20:15.867Z,15.50
2022-09-21T15:22:46.038Z,15.40
2022-09-21T15:25:16.159Z,15.40
2022-09-21T15:27:47.106Z,15.30
2022-09-21T15:30:23.366Z,15.30
2022-09-21T15:32:55.767Z,15.30
2022-09-21T15:35:28.048Z,15.40
2022-09-21T15:37:58.114Z,15.20
2022-09-21T15:40:32.666Z,15.20
2022-09-21T15:43:06.868Z,15.10
2022-09-21T15:45:42.897Z,14.90
2022-09-21T15:48:13.669Z,14.80
2022-09-21T15:50:46.398Z,14.70
2022-09-21T15:53:22.473Z,14.70
2022-09-21T15:55:52.687Z,14.50
2022-09-21T15:58:32.119Z,14.50
2022-09-21T16:01:01.788Z,14.40
2022-09-21T16:03:31.154Z,14.30
2022-09-21T16:06:18.566Z,14.30
2022-09-21T16:08:47.581Z,14.30
2022-09-21T16:11:19.378Z,14.10
2022-09-21T16:14:17.457Z,14.00
2022-09-21T16:17:09.414Z,14.00
2022-09-21T16:19:46.487Z,13.90
2022-09-21T16:22:19.514Z,13.80
2022-09-21T16:24:52.900Z,13.70
2022-09-21T16:27:24.254Z,13.70
2022-09-21T16:29:55.438Z,13.60
2022-09-21T16:32:32.278Z,13.50
2022-09-21T16:35:25.720Z,13.50
2022-09-21T16:37:59.233Z,13.40
2022-09-21T16:40:29.026Z,13.30
2022-09-21T16:42:59.245Z,13.20
2022-09-21T16:45:32.714Z,13.10
2022-09-21T16:48:03.018Z,13.10
2022-09-21T16:50:31.859Z,13.00
2022-09-21T16:53:02.260Z,13.00
2022-09-21T16:55:31.459Z,13.00
2022-09-21T16:58:00.786Z,12.90
2022-09-21T17:00:33.499Z,12.80
2022-09-21T17:03:02.826Z,12.70
2022-09-21T17:05:31.720Z,12.60
2022-09-21T17:08:03.478Z,12.50
2022-09-21T17:10:35.567Z,12.50
2022-09-21T17:13:06.160Z,12.40
2022-09-21T17:15:36.572Z,12.40
2022-09-21T17:18:06.754Z,12.40
2022-09-21T17:20:38.519Z,12.40
2022-09-21T17:23:09.306Z,12.50
2022-09-21T17:25:38.820Z,12.50
2022-09-21T17:28:16.097Z,12.40
2022-09-21T17:30:46.799Z,12.40
2022-09-21T17:33:18.370Z,12.40
2022-09-21T17:35:48.322Z,12.40
2022-09-21T17:38:20.139Z,12.40
2022-09-21T17:40:50.049Z,12.30
2022-09-21T17:43:34.642Z,12.30
2022-09-21T17:46:09.810Z,12.30
2022-09-21T17:48:41.959Z,12.30
2022-09-21T17:51:33.066Z,12.30
2022-09-21T17:54:03.098Z,12.30
2022-09-21T17:56:44.399Z,12.30
2022-09-21T17:59:27.377Z,12.30
2022-09-21T18:02:00.403Z,12.30
2022-09-21T18:04:35.139Z,12.30
2022-09-21T18:07:04.766Z,12.20
2022-09-21T18:09:36.108Z,12.20
2022-09-21T18:12:37.082Z,12.20
2022-09-21T18:15:19.087Z,12.20
2022-09-21T18:18:01.858Z,12.10
2022-09-21T18:20:43.138Z,12.00
2022-09-21T18:23:21.284Z,12.00
2022-09-21T18:25:57.617Z,11.90
2022-09-21T18:28:38.827Z,11.80
2022-09-21T18:31:29.879Z,11.70
2022-09-21T18:34:13.586Z,11.60
2022-09-21T18:36:55.717Z,11.50
2022-09-21T18:39:33.304Z,11.40
2022-09-21T18:42:21.407Z,11.40
2022-09-21T18:44:59.424Z,11.40
2022-09-21T18:47:34.657Z,11.50
2022-09-21T18:50:09.830Z,11.50
2022-09-21T18:52:46.632Z,11.50
2022-09-21T18:55:27.418Z,11.50
2022-09-21T18:58:00.678Z,11.50
2022-09-21T19:00:34.938Z,11.60
2022-09-21T19:03:18.033Z,11.60
2022-09-21T19:05:56.357Z,11.60
2022-09-21T19:08:32.507Z,11.60
2022-09-21T19:11:10.486Z,11.60
2022-09-21T19:13:50.042Z,11.60
2022-09-21T19:16:29.173Z,11.60
2022-09-21T19:19:14.838Z,11.60
2022-09-21T19:21:52.080Z,11.60
2022-09-21T19:24:31.078Z,11.60
2022-09-21T19:27:11.737Z,11.50
2022-09-21T19:29:54.966Z,11.50
2022-09-21T19:32:33.458Z,11.30
2022-09-21T19:35:16.880Z,11.20
2022-09-21T19:37:48.813Z,11.10
2022-09-21T19:40:20.353Z,11.00
2022-09-21T19:43:21.025Z,11.00
2022-09-21T19:46:06.089Z,11.00
2022-09-21T19:48:43.219Z,10.90
2022-09-21T19:51:19.793Z,10.90
2022-09-21T19:54:12.780Z,10.90
2022-09-21T19:57:05.674Z,10.90
2022-09-21T19:59:47.209Z,10.90
2022-09-21T20:02:22.975Z,10.90
2022-09-21T20:04:57.347Z,10.90
2022-09-21T20:07:44.926Z,10.90
2022-09-21T20:10:42.358Z,10.90
2022-09-21T20:13:31.539Z,10.90
2022-09-21T20:16:05.602Z,11.00
2022-09-21T20:18:43.819Z,10.90
2022-09-21T20:21:15.748Z,10.90
2022-09-21T20:23:47.759Z,10.90
2022-09-21T20:26:25.371Z,10.90
2022-09-21T20:28:55.569Z,10.90
2022-09-21T20:31:26.718Z,11.00
2022-09-21T20:33:57.205Z,11.00
2022-09-21T20:36:26.141Z,11.00
2022-09-21T20:38:57.278Z,10.90
2022-09-21T20:41:26.219Z,10.90
2022-09-21T20:43:55.146Z,10.90
2022-09-21T20:46:24.206Z,10.80
2022-09-21T20:49:00.479Z,10.80
2022-09-21T20:51:31.287Z,10.80
2022-09-21T20:54:02.258Z,10.80
2022-09-21T20:56:31.475Z,10.80
2022-09-21T20:59:00.520Z,10.80
2022-09-21T21:01:29.497Z,10.80
2022-09-21T21:04:03.229Z,10.80
2022-09-21T21:06:35.277Z,10.80
2022-09-21T21:09:04.449Z,10.80
2022-09-21T21:11:33.389Z,10.80
2022-09-21T21:14:02.677Z,10.80
2022-09-21T21:16:31.660Z,10.80
2022-09-21T21:19:00.678Z,10.80
2022-09-21T21:21:29.537Z,10.90
2022-09-21T21:24:29.113Z,10.90
2022-09-21T21:27:02.331Z,10.90
2022-09-21T21:29:32.326Z,11.00
2022-09-21T21:32:01.630Z,11.00
2022-09-21T21:34:30.627Z,11.00
2022-09-21T21:37:00.067Z,11.00
2022-09-21T21:39:30.726Z,11.00
2022-09-21T21:41:59.755Z,11.00
2022-09-21T21:44:28.969Z,11.00
2022-09-21T21:47:10.248Z,10.90
2022-09-21T21:49:47.540Z,10.80
2022-09-21T21:52:16.666Z,10.70
2022-09-21T21:54:47.047Z,10.50
2022-09-21T21:57:15.907Z,10.50
2022-09-21T21:59:44.839Z,10.40
2022-09-21T22:02:14.083Z,10.30
2022-09-21T22:04:42.962Z,10.20
2022-09-21T22:07:11.925Z,10.20
2022-09-21T22:09:40.830Z,10.10
2022-09-21T22:12:11.821Z,10.20
2022-09-21T22:14:40.832Z,10.30
2022-09-21T22:17:09.738Z,10.30
2022-09-21T22:19:38.814Z,10.40
2022-09-21T22:22:07.706Z,10.50
2022-09-21T22:24:36.845Z,10.50
2022-09-21T22:27:05.998Z,10.50
2022-09-21T22:29:36.662Z,10.60
2022-09-21T22:32:05.828Z,10.60
2022-09-21T22:34:34.833Z,10.60
2022-09-21T22:37:03.716Z,10.50
2022-09-21T22:39:32.721Z,10.60
2022-09-21T22:42:01.777Z,10.60
2022-09-21T22:44:30.683Z,10.60
2022-09-21T22:47:01.160Z,10.60
2022-09-21T22:49:30.106Z,10.60
2022-09-21T22:51:59.033Z,10.50
2022-09-21T22:54:28.265Z,10.40
2022-09-21T22:56:57.300Z,10.20
2022-09-21T22:59:26.166Z,10.10
2022-09-21T23:01:56.862Z,10.00
2022-09-21T23:04:27.336Z,9.90
2022-09-21T23:06:56.207Z,9.80
2022-09-21T23:09:25.146Z,9.80
2022-09-21T23:11:54.646Z,9.70
2022-09-21T23:14:24.767Z,9.60
2022-09-21T23:16:54.478Z,9.50
2022-09-21T23:19:23.344Z,9.40
2022-09-21T23:21:54.284Z,9.30
2022-09-21T23:24:23.386Z,9.10
2022-09-21T23:26:52.282Z,9.00
2022-09-21T23:29:21.482Z,8.90
2022-09-21T23:31:50.470Z,8.80
2022-09-21T23:34:19.478Z,8.70
2022-09-21T23:36:48.380Z,8.60
2022-09-21T23:39:18.687Z,8.60
2022-09-21T23:41:47.848Z,8.50
2022-09-21T23:44:16.766Z,8.40
2022-09-21T23:46:45.706Z,8.40
2022-09-21T23:49:14.746Z,8.30
2022-09-21T23:51:43.748Z,8.20
2022-09-21T23:54:15.614Z,8.20
2022-09-21T23:56:46.325Z,8.10
2022-09-21T23:59:15.206Z,8.10
